< < Back
Terminal Aerodrome Forecast


Current Version              Previous Versions:   1  2  3  4  5  6  7  8  9  

Terminal Aerodrome Forecast

330
FTUS42 KJAX 261743
TAFSSI
TAF
KSSI 261743Z 2618/2718 18006KT P6SM VCSH SCT030 BKN060
      TEMPO 2618/2620 -RA BKN035
     FM270200 20008KT P6SM VCSH SCT030 BKN120
     FM270900 22008KT P6SM VCSH BKN010
     FM271200 22006KT 5SM -RA BR SCT004 OVC015
      TEMPO 2712/2715 5SM SHRA BKN008 OVC015
     FM271500 25009G17KT P6SM BKN035=

Latest METAR

525
SAUS70 KWBC 270200 RRG
MTRSSI
METAR KSSI 270153Z AUTO 16006KT 9SM OVC010 18/17 A2985 RMK AO2 SLP108
T01830172


USA.gov is the U.S. government's official web portal to all federal, state and local government web resources and services.